sensor_id;sensor_type;location;lat;lon;timestamp;P1;durP1;ratioP1;P2;durP2;ratioP2
34234;SDS011;20500;49.856;20.290;2023-11-19T00:00:43;24.90;;;16.60;;
34234;SDS011;20500;49.856;20.290;2023-11-19T00:03:55;24.90;;;16.40;;
34234;SDS011;20500;49.856;20.290;2023-11-19T00:07:01;25.60;;;16.90;;
34234;SDS011;20500;49.856;20.290;2023-11-19T00:10:09;26.20;;;17.80;;
34234;SDS011;20500;49.856;20.290;2023-11-19T00:13:16;27.40;;;17.80;;
34234;SDS011;20500;49.856;20.290;2023-11-19T00:16:21;28.20;;;18.60;;
34234;SDS011;20500;49.856;20.290;2023-11-19T00:19:27;28.60;;;19.30;;
34234;SDS011;20500;49.856;20.290;2023-11-19T00:22:33;30.70;;;20.00;;
34234;SDS011;20500;49.856;20.290;2023-11-19T00:25:49;32.10;;;21.00;;
34234;SDS011;20500;49.856;20.290;2023-11-19T00:28:55;32.50;;;21.80;;
34234;SDS011;20500;49.856;20.290;2023-11-19T00:32:02;35.10;;;23.60;;
34234;SDS011;20500;49.856;20.290;2023-11-19T00:35:10;33.00;;;23.10;;
34234;SDS011;20500;49.856;20.290;2023-11-19T00:38:18;34.70;;;23.00;;
34234;SDS011;20500;49.856;20.290;2023-11-19T00:41:23;35.70;;;23.50;;
34234;SDS011;20500;49.856;20.290;2023-11-19T00:44:29;35.40;;;23.70;;
34234;SDS011;20500;49.856;20.290;2023-11-19T00:47:35;33.40;;;22.80;;
34234;SDS011;20500;49.856;20.290;2023-11-19T00:50:41;36.50;;;22.40;;
34234;SDS011;20500;49.856;20.290;2023-11-19T00:53:48;34.20;;;22.70;;
34234;SDS011;20500;49.856;20.290;2023-11-19T00:56:55;32.10;;;22.00;;
34234;SDS011;20500;49.856;20.290;2023-11-19T01:00:01;35.10;;;23.40;;
34234;SDS011;20500;49.856;20.290;2023-11-19T01:03:16;35.00;;;23.60;;
34234;SDS011;20500;49.856;20.290;2023-11-19T01:06:28;34.30;;;22.90;;
34234;SDS011;20500;49.856;20.290;2023-11-19T01:09:35;36.10;;;24.40;;
34234;SDS011;20500;49.856;20.290;2023-11-19T01:12:41;35.50;;;22.60;;
34234;SDS011;20500;49.856;20.290;2023-11-19T01:15:46;31.80;;;22.20;;
34234;SDS011;20500;49.856;20.290;2023-11-19T01:18:52;33.20;;;21.80;;
34234;SDS011;20500;49.856;20.290;2023-11-19T01:22:17;31.70;;;19.80;;
34234;SDS011;20500;49.856;20.290;2023-11-19T01:25:23;31.90;;;21.30;;
34234;SDS011;20500;49.856;20.290;2023-11-19T01:28:28;32.90;;;22.30;;
34234;SDS011;20500;49.856;20.290;2023-11-19T01:31:35;33.10;;;20.20;;
34234;SDS011;20500;49.856;20.290;2023-11-19T01:34:40;29.20;;;20.50;;
34234;SDS011;20500;49.856;20.290;2023-11-19T01:37:46;29.40;;;20.10;;
34234;SDS011;20500;49.856;20.290;2023-11-19T01:40:56;30.40;;;19.90;;
34234;SDS011;20500;49.856;20.290;2023-11-19T01:44:03;31.00;;;20.70;;
34234;SDS011;20500;49.856;20.290;2023-11-19T01:47:09;29.90;;;20.00;;
34234;SDS011;20500;49.856;20.290;2023-11-19T01:50:15;31.10;;;20.60;;
34234;SDS011;20500;49.856;20.290;2023-11-19T01:53:22;32.30;;;21.00;;
34234;SDS011;20500;49.856;20.290;2023-11-19T01:56:28;33.30;;;22.40;;
34234;SDS011;20500;49.856;20.290;2023-11-19T01:59:36;32.60;;;20.30;;
34234;SDS011;20500;49.856;20.290;2023-11-19T02:02:41;32.00;;;22.10;;
34234;SDS011;20500;49.856;20.290;2023-11-19T02:05:49;30.50;;;20.40;;
34234;SDS011;20500;49.856;20.290;2023-11-19T02:08:55;32.20;;;20.10;;
34234;SDS011;20500;49.856;20.290;2023-11-19T02:12:01;32.40;;;21.00;;
34234;SDS011;20500;49.856;20.290;2023-11-19T02:18:19;28.60;;;18.80;;
34234;SDS011;20500;49.856;20.290;2023-11-19T02:21:26;28.40;;;19.20;;
34234;SDS011;20500;49.856;20.290;2023-11-19T02:27:43;30.50;;;18.50;;
34234;SDS011;20500;49.856;20.290;2023-11-19T02:30:53;32.60;;;19.00;;
34234;SDS011;20500;49.856;20.290;2023-11-19T02:34:00;29.80;;;18.90;;
34234;SDS011;20500;49.856;20.290;2023-11-19T02:37:06;30.40;;;19.00;;
34234;SDS011;20500;49.856;20.290;2023-11-19T02:40:13;29.20;;;18.00;;
34234;SDS011;20500;49.856;20.290;2023-11-19T02:43:20;32.50;;;19.50;;
34234;SDS011;20500;49.856;20.290;2023-11-19T02:46:26;28.20;;;17.90;;
34234;SDS011;20500;49.856;20.290;2023-11-19T02:49:32;28.00;;;17.70;;
34234;SDS011;20500;49.856;20.290;2023-11-19T02:52:40;30.10;;;18.60;;
34234;SDS011;20500;49.856;20.290;2023-11-19T02:55:46;29.60;;;19.30;;
34234;SDS011;20500;49.856;20.290;2023-11-19T02:58:53;28.80;;;19.80;;
34234;SDS011;20500;49.856;20.290;2023-11-19T03:01:58;30.50;;;19.60;;
34234;SDS011;20500;49.856;20.290;2023-11-19T03:05:05;28.80;;;19.50;;
34234;SDS011;20500;49.856;20.290;2023-11-19T03:08:11;30.10;;;19.50;;
34234;SDS011;20500;49.856;20.290;2023-11-19T03:11:25;31.70;;;19.50;;
34234;SDS011;20500;49.856;20.290;2023-11-19T03:14:31;30.50;;;20.60;;
34234;SDS011;20500;49.856;20.290;2023-11-19T03:17:39;30.00;;;19.60;;
34234;SDS011;20500;49.856;20.290;2023-11-19T03:20:45;30.90;;;20.60;;
34234;SDS011;20500;49.856;20.290;2023-11-19T03:23:52;33.70;;;22.00;;
34234;SDS011;20500;49.856;20.290;2023-11-19T03:26:59;34.00;;;21.60;;
34234;SDS011;20500;49.856;20.290;2023-11-19T03:30:05;32.70;;;21.60;;
34234;SDS011;20500;49.856;20.290;2023-11-19T03:33:13;32.50;;;21.50;;
34234;SDS011;20500;49.856;20.290;2023-11-19T03:36:19;34.90;;;22.70;;
34234;SDS011;20500;49.856;20.290;2023-11-19T03:42:29;33.10;;;21.40;;
34234;SDS011;20500;49.856;20.290;2023-11-19T03:45:35;35.50;;;23.50;;
34234;SDS011;20500;49.856;20.290;2023-11-19T03:48:41;37.00;;;23.70;;
34234;SDS011;20500;49.856;20.290;2023-11-19T03:51:47;35.80;;;23.70;;
34234;SDS011;20500;49.856;20.290;2023-11-19T03:54:53;37.00;;;24.30;;
34234;SDS011;20500;49.856;20.290;2023-11-19T03:57:59;38.80;;;23.70;;
34234;SDS011;20500;49.856;20.290;2023-11-19T04:01:05;39.90;;;24.50;;
34234;SDS011;20500;49.856;20.290;2023-11-19T04:04:17;39.00;;;25.60;;
34234;SDS011;20500;49.856;20.290;2023-11-19T04:07:23;37.50;;;24.50;;
34234;SDS011;20500;49.856;20.290;2023-11-19T04:10:28;36.70;;;23.40;;
34234;SDS011;20500;49.856;20.290;2023-11-19T04:13:34;40.50;;;24.70;;
34234;SDS011;20500;49.856;20.290;2023-11-19T04:16:40;36.70;;;23.90;;
34234;SDS011;20500;49.856;20.290;2023-11-19T04:19:46;38.90;;;25.10;;
34234;SDS011;20500;49.856;20.290;2023-11-19T04:22:52;35.70;;;23.40;;
34234;SDS011;20500;49.856;20.290;2023-11-19T04:29:13;41.90;;;24.90;;
34234;SDS011;20500;49.856;20.290;2023-11-19T04:32:20;44.30;;;25.20;;
34234;SDS011;20500;49.856;20.290;2023-11-19T04:35:28;40.70;;;26.00;;
34234;SDS011;20500;49.856;20.290;2023-11-19T04:38:34;38.70;;;25.30;;
34234;SDS011;20500;49.856;20.290;2023-11-19T04:41:47;37.60;;;25.40;;
34234;SDS011;20500;49.856;20.290;2023-11-19T04:44:54;37.30;;;24.10;;
34234;SDS011;20500;49.856;20.290;2023-11-19T04:48:00;27.40;;;17.90;;
34234;SDS011;20500;49.856;20.290;2023-11-19T04:51:06;35.20;;;23.60;;
34234;SDS011;20500;49.856;20.290;2023-11-19T04:54:13;35.60;;;22.40;;
34234;SDS011;20500;49.856;20.290;2023-11-19T04:57:18;36.10;;;22.40;;
34234;SDS011;20500;49.856;20.290;2023-11-19T05:00:24;27.10;;;17.80;;
34234;SDS011;20500;49.856;20.290;2023-11-19T05:03:30;35.10;;;22.70;;
34234;SDS011;20500;49.856;20.290;2023-11-19T05:06:36;36.00;;;22.70;;
34234;SDS011;20500;49.856;20.290;2023-11-19T05:09:42;33.50;;;21.70;;
34234;SDS011;20500;49.856;20.290;2023-11-19T05:12:47;32.60;;;20.80;;
34234;SDS011;20500;49.856;20.290;2023-11-19T05:15:54;34.30;;;20.50;;
34234;SDS011;20500;49.856;20.290;2023-11-19T05:19:00;31.60;;;19.30;;
34234;SDS011;20500;49.856;20.290;2023-11-19T05:22:06;31.00;;;19.50;;
34234;SDS011;20500;49.856;20.290;2023-11-19T05:25:12;27.50;;;17.40;;
34234;SDS011;20500;49.856;20.290;2023-11-19T05:28:18;26.00;;;15.20;;
34234;SDS011;20500;49.856;20.290;2023-11-19T05:31:24;20.60;;;12.30;;
34234;SDS011;20500;49.856;20.290;2023-11-19T05:34:30;20.90;;;10.70;;
34234;SDS011;20500;49.856;20.290;2023-11-19T05:37:35;17.60;;;10.60;;
34234;SDS011;20500;49.856;20.290;2023-11-19T05:40:42;16.60;;;9.40;;
34234;SDS011;20500;49.856;20.290;2023-11-19T05:43:47;15.70;;;8.90;;
34234;SDS011;20500;49.856;20.290;2023-11-19T05:46:54;15.10;;;8.20;;
34234;SDS011;20500;49.856;20.290;2023-11-19T05:50:00;14.40;;;8.30;;
34234;SDS011;20500;49.856;20.290;2023-11-19T05:53:08;15.30;;;7.90;;
34234;SDS011;20500;49.856;20.290;2023-11-19T05:56:16;15.00;;;7.90;;
34234;SDS011;20500;49.856;20.290;2023-11-19T05:59:24;14.40;;;7.70;;
34234;SDS011;20500;49.856;20.290;2023-11-19T06:02:30;12.50;;;6.10;;
34234;SDS011;20500;49.856;20.290;2023-11-19T06:05:40;15.00;;;8.50;;
34234;SDS011;20500;49.856;20.290;2023-11-19T06:08:48;15.10;;;8.00;;
34234;SDS011;20500;49.856;20.290;2023-11-19T06:15:00;14.90;;;7.90;;
34234;SDS011;20500;49.856;20.290;2023-11-19T06:21:11;16.20;;;8.20;;
34234;SDS011;20500;49.856;20.290;2023-11-19T06:27:21;15.40;;;7.80;;
34234;SDS011;20500;49.856;20.290;2023-11-19T06:30:27;15.80;;;8.10;;
34234;SDS011;20500;49.856;20.290;2023-11-19T06:33:35;14.80;;;7.70;;
34234;SDS011;20500;49.856;20.290;2023-11-19T06:36:41;16.70;;;8.10;;
34234;SDS011;20500;49.856;20.290;2023-11-19T06:39:47;15.60;;;8.00;;
34234;SDS011;20500;49.856;20.290;2023-11-19T06:42:53;15.50;;;8.20;;
34234;SDS011;20500;49.856;20.290;2023-11-19T06:45:59;14.00;;;7.80;;
34234;SDS011;20500;49.856;20.290;2023-11-19T06:49:05;15.20;;;8.30;;
34234;SDS011;20500;49.856;20.290;2023-11-19T06:52:11;15.20;;;8.30;;
34234;SDS011;20500;49.856;20.290;2023-11-19T06:55:17;14.20;;;7.40;;
34234;SDS011;20500;49.856;20.290;2023-11-19T06:58:22;14.80;;;8.30;;
34234;SDS011;20500;49.856;20.290;2023-11-19T07:01:28;15.30;;;7.50;;
34234;SDS011;20500;49.856;20.290;2023-11-19T07:04:39;16.30;;;8.10;;
34234;SDS011;20500;49.856;20.290;2023-11-19T07:07:45;15.40;;;7.50;;
34234;SDS011;20500;49.856;20.290;2023-11-19T07:10:51;14.50;;;7.90;;
34234;SDS011;20500;49.856;20.290;2023-11-19T07:13:57;13.60;;;7.70;;
34234;SDS011;20500;49.856;20.290;2023-11-19T07:17:03;15.40;;;8.30;;
34234;SDS011;20500;49.856;20.290;2023-11-19T07:20:10;14.30;;;7.60;;
34234;SDS011;20500;49.856;20.290;2023-11-19T07:23:18;14.70;;;7.30;;
34234;SDS011;20500;49.856;20.290;2023-11-19T07:26:24;14.80;;;7.70;;
34234;SDS011;20500;49.856;20.290;2023-11-19T07:29:30;13.70;;;7.20;;
34234;SDS011;20500;49.856;20.290;2023-11-19T07:32:38;14.80;;;7.80;;
34234;SDS011;20500;49.856;20.290;2023-11-19T07:35:44;15.40;;;8.00;;
34234;SDS011;20500;49.856;20.290;2023-11-19T07:38:51;15.60;;;9.10;;
34234;SDS011;20500;49.856;20.290;2023-11-19T07:42:00;15.70;;;9.00;;
34234;SDS011;20500;49.856;20.290;2023-11-19T07:48:12;15.10;;;8.60;;
34234;SDS011;20500;49.856;20.290;2023-11-19T07:54:22;16.10;;;9.00;;
34234;SDS011;20500;49.856;20.290;2023-11-19T07:57:28;13.20;;;7.10;;
34234;SDS011;20500;49.856;20.290;2023-11-19T08:00:34;14.80;;;8.60;;
34234;SDS011;20500;49.856;20.290;2023-11-19T08:03:39;16.70;;;9.40;;
34234;SDS011;20500;49.856;20.290;2023-11-19T08:07:01;16.10;;;9.30;;
34234;SDS011;20500;49.856;20.290;2023-11-19T08:10:07;14.50;;;8.40;;
34234;SDS011;20500;49.856;20.290;2023-11-19T08:13:14;15.30;;;8.20;;
34234;SDS011;20500;49.856;20.290;2023-11-19T08:16:22;16.20;;;9.20;;
34234;SDS011;20500;49.856;20.290;2023-11-19T08:19:28;14.30;;;7.80;;
34234;SDS011;20500;49.856;20.290;2023-11-19T08:22:35;14.20;;;8.10;;
34234;SDS011;20500;49.856;20.290;2023-11-19T08:25:40;14.10;;;8.00;;
34234;SDS011;20500;49.856;20.290;2023-11-19T08:31:51;15.00;;;8.50;;
34234;SDS011;20500;49.856;20.290;2023-11-19T08:34:56;15.20;;;7.80;;
34234;SDS011;20500;49.856;20.290;2023-11-19T08:38:02;14.70;;;8.50;;
34234;SDS011;20500;49.856;20.290;2023-11-19T08:41:08;12.40;;;6.70;;
34234;SDS011;20500;49.856;20.290;2023-11-19T08:44:14;15.50;;;8.30;;
34234;SDS011;20500;49.856;20.290;2023-11-19T08:47:21;15.30;;;8.90;;
34234;SDS011;20500;49.856;20.290;2023-11-19T08:53:32;15.90;;;7.80;;
34234;SDS011;20500;49.856;20.290;2023-11-19T08:56:38;15.30;;;8.30;;
34234;SDS011;20500;49.856;20.290;2023-11-19T09:02:49;15.40;;;7.90;;
34234;SDS011;20500;49.856;20.290;2023-11-19T09:05:55;14.00;;;7.60;;
34234;SDS011;20500;49.856;20.290;2023-11-19T09:09:01;16.80;;;8.10;;
34234;SDS011;20500;49.856;20.290;2023-11-19T09:12:08;15.40;;;8.00;;
34234;SDS011;20500;49.856;20.290;2023-11-19T09:15:14;16.20;;;8.60;;
34234;SDS011;20500;49.856;20.290;2023-11-19T09:18:20;16.20;;;8.50;;
34234;SDS011;20500;49.856;20.290;2023-11-19T09:21:26;16.00;;;8.30;;
34234;SDS011;20500;49.856;20.290;2023-11-19T09:24:32;15.20;;;7.90;;
34234;SDS011;20500;49.856;20.290;2023-11-19T09:27:38;14.70;;;7.80;;
34234;SDS011;20500;49.856;20.290;2023-11-19T09:30:44;14.60;;;8.30;;
34234;SDS011;20500;49.856;20.290;2023-11-19T09:33:50;15.60;;;8.30;;
34234;SDS011;20500;49.856;20.290;2023-11-19T09:36:55;14.60;;;8.20;;
34234;SDS011;20500;49.856;20.290;2023-11-19T09:40:01;15.10;;;8.60;;
34234;SDS011;20500;49.856;20.290;2023-11-19T09:43:07;15.60;;;8.30;;
34234;SDS011;20500;49.856;20.290;2023-11-19T09:46:14;14.80;;;7.40;;
34234;SDS011;20500;49.856;20.290;2023-11-19T09:52:29;14.40;;;7.00;;
34234;SDS011;20500;49.856;20.290;2023-11-19T09:55:35;14.80;;;7.80;;
34234;SDS011;20500;49.856;20.290;2023-11-19T09:58:40;14.60;;;7.60;;
34234;SDS011;20500;49.856;20.290;2023-11-19T10:01:46;15.20;;;8.40;;
34234;SDS011;20500;49.856;20.290;2023-11-19T10:04:53;15.10;;;7.90;;
34234;SDS011;20500;49.856;20.290;2023-11-19T10:08:00;15.80;;;8.40;;
34234;SDS011;20500;49.856;20.290;2023-11-19T10:11:07;14.90;;;7.30;;
34234;SDS011;20500;49.856;20.290;2023-11-19T10:14:14;15.20;;;8.00;;
34234;SDS011;20500;49.856;20.290;2023-11-19T10:17:22;14.60;;;8.00;;
34234;SDS011;20500;49.856;20.290;2023-11-19T10:20:36;15.70;;;8.30;;
34234;SDS011;20500;49.856;20.290;2023-11-19T10:23:51;15.10;;;8.30;;
34234;SDS011;20500;49.856;20.290;2023-11-19T10:27:00;14.00;;;8.50;;
34234;SDS011;20500;49.856;20.290;2023-11-19T10:30:07;14.70;;;7.80;;
34234;SDS011;20500;49.856;20.290;2023-11-19T10:33:15;15.60;;;8.40;;
34234;SDS011;20500;49.856;20.290;2023-11-19T10:36:23;16.00;;;8.50;;
34234;SDS011;20500;49.856;20.290;2023-11-19T10:39:54;14.40;;;8.10;;
34234;SDS011;20500;49.856;20.290;2023-11-19T10:43:03;15.10;;;8.20;;
34234;SDS011;20500;49.856;20.290;2023-11-19T10:46:11;15.50;;;8.90;;
34234;SDS011;20500;49.856;20.290;2023-11-19T10:49:24;15.40;;;7.90;;
34234;SDS011;20500;49.856;20.290;2023-11-19T10:52:29;16.40;;;8.60;;
34234;SDS011;20500;49.856;20.290;2023-11-19T10:55:38;14.90;;;7.80;;
34234;SDS011;20500;49.856;20.290;2023-11-19T10:58:44;13.80;;;7.50;;
34234;SDS011;20500;49.856;20.290;2023-11-19T11:01:53;15.00;;;6.70;;
34234;SDS011;20500;49.856;20.290;2023-11-19T11:05:00;13.20;;;7.00;;
34234;SDS011;20500;49.856;20.290;2023-11-19T11:08:08;14.80;;;8.50;;
34234;SDS011;20500;49.856;20.290;2023-11-19T11:11:15;13.10;;;6.60;;
34234;SDS011;20500;49.856;20.290;2023-11-19T11:14:24;12.80;;;6.50;;
34234;SDS011;20500;49.856;20.290;2023-11-19T11:17:30;14.70;;;7.40;;
34234;SDS011;20500;49.856;20.290;2023-11-19T11:20:37;13.40;;;6.70;;
34234;SDS011;20500;49.856;20.290;2023-11-19T11:27:16;16.50;;;8.90;;
34234;SDS011;20500;49.856;20.290;2023-11-19T11:30:39;15.80;;;7.80;;
34234;SDS011;20500;49.856;20.290;2023-11-19T11:34:04;12.20;;;6.20;;
34234;SDS011;20500;49.856;20.290;2023-11-19T11:37:31;18.10;;;9.50;;
34234;SDS011;20500;49.856;20.290;2023-11-19T11:40:41;12.10;;;6.00;;
34234;SDS011;20500;49.856;20.290;2023-11-19T11:43:48;13.70;;;6.40;;
34234;SDS011;20500;49.856;20.290;2023-11-19T11:46:55;15.20;;;7.10;;
34234;SDS011;20500;49.856;20.290;2023-11-19T11:50:05;12.90;;;5.80;;
34234;SDS011;20500;49.856;20.290;2023-11-19T11:53:19;11.40;;;5.10;;
34234;SDS011;20500;49.856;20.290;2023-11-19T11:56:33;11.30;;;5.40;;
34234;SDS011;20500;49.856;20.290;2023-11-19T11:59:48;12.70;;;6.50;;
34234;SDS011;20500;49.856;20.290;2023-11-19T12:02:55;12.00;;;5.90;;
34234;SDS011;20500;49.856;20.290;2023-11-19T12:06:03;12.30;;;6.10;;
34234;SDS011;20500;49.856;20.290;2023-11-19T12:09:11;13.40;;;6.00;;
34234;SDS011;20500;49.856;20.290;2023-11-19T12:12:27;12.40;;;5.90;;
34234;SDS011;20500;49.856;20.290;2023-11-19T12:15:36;14.10;;;7.30;;
34234;SDS011;20500;49.856;20.290;2023-11-19T12:19:15;12.60;;;6.30;;
34234;SDS011;20500;49.856;20.290;2023-11-19T12:22:21;13.70;;;6.30;;
34234;SDS011;20500;49.856;20.290;2023-11-19T12:25:28;14.00;;;7.20;;
34234;SDS011;20500;49.856;20.290;2023-11-19T12:28:40;12.20;;;5.80;;
34234;SDS011;20500;49.856;20.290;2023-11-19T12:32:00;12.90;;;7.10;;
34234;SDS011;20500;49.856;20.290;2023-11-19T12:35:10;11.40;;;5.80;;
34234;SDS011;20500;49.856;20.290;2023-11-19T12:38:22;13.60;;;6.30;;
34234;SDS011;20500;49.856;20.290;2023-11-19T12:41:29;12.80;;;6.00;;
34234;SDS011;20500;49.856;20.290;2023-11-19T12:44:37;13.10;;;6.10;;
34234;SDS011;20500;49.856;20.290;2023-11-19T12:47:43;14.60;;;7.00;;
34234;SDS011;20500;49.856;20.290;2023-11-19T12:50:51;13.30;;;6.30;;
34234;SDS011;20500;49.856;20.290;2023-11-19T12:53:58;13.70;;;5.90;;
34234;SDS011;20500;49.856;20.290;2023-11-19T12:57:04;14.80;;;7.10;;
34234;SDS011;20500;49.856;20.290;2023-11-19T13:00:19;13.60;;;7.00;;
34234;SDS011;20500;49.856;20.290;2023-11-19T13:03:30;15.40;;;7.80;;
34234;SDS011;20500;49.856;20.290;2023-11-19T13:06:37;16.00;;;8.50;;
34234;SDS011;20500;49.856;20.290;2023-11-19T13:10:07;16.10;;;8.20;;
34234;SDS011;20500;49.856;20.290;2023-11-19T13:13:14;13.80;;;7.10;;
34234;SDS011;20500;49.856;20.290;2023-11-19T13:16:20;13.90;;;6.60;;
34234;SDS011;20500;49.856;20.290;2023-11-19T13:19:26;11.90;;;6.30;;
34234;SDS011;20500;49.856;20.290;2023-11-19T13:22:32;12.70;;;6.20;;
34234;SDS011;20500;49.856;20.290;2023-11-19T13:25:37;12.10;;;5.90;;
34234;SDS011;20500;49.856;20.290;2023-11-19T13:28:43;11.50;;;5.70;;
34234;SDS011;20500;49.856;20.290;2023-11-19T13:31:49;13.00;;;6.10;;
34234;SDS011;20500;49.856;20.290;2023-11-19T13:34:55;14.00;;;7.40;;
34234;SDS011;20500;49.856;20.290;2023-11-19T13:38:00;28.30;;;18.30;;
34234;SDS011;20500;49.856;20.290;2023-11-19T13:41:06;15.60;;;8.90;;
34234;SDS011;20500;49.856;20.290;2023-11-19T13:44:13;28.30;;;18.50;;
34234;SDS011;20500;49.856;20.290;2023-11-19T13:47:19;49.20;;;35.40;;
34234;SDS011;20500;49.856;20.290;2023-11-19T13:50:25;21.00;;;12.90;;
34234;SDS011;20500;49.856;20.290;2023-11-19T13:53:31;25.60;;;17.00;;
34234;SDS011;20500;49.856;20.290;2023-11-19T13:56:40;18.30;;;10.10;;
34234;SDS011;20500;49.856;20.290;2023-11-19T13:59:47;14.70;;;8.30;;
34234;SDS011;20500;49.856;20.290;2023-11-19T14:02:53;18.40;;;9.90;;
34234;SDS011;20500;49.856;20.290;2023-11-19T14:05:59;15.70;;;9.00;;
34234;SDS011;20500;49.856;20.290;2023-11-19T14:12:11;27.90;;;16.10;;
34234;SDS011;20500;49.856;20.290;2023-11-19T14:15:16;25.50;;;15.50;;
34234;SDS011;20500;49.856;20.290;2023-11-19T14:18:22;24.80;;;15.10;;
34234;SDS011;20500;49.856;20.290;2023-11-19T14:21:28;23.30;;;14.60;;
34234;SDS011;20500;49.856;20.290;2023-11-19T14:27:39;20.50;;;12.50;;
34234;SDS011;20500;49.856;20.290;2023-11-19T14:30:46;22.10;;;13.30;;
34234;SDS011;20500;49.856;20.290;2023-11-19T14:33:56;34.30;;;23.20;;
34234;SDS011;20500;49.856;20.290;2023-11-19T14:37:03;21.20;;;14.40;;
34234;SDS011;20500;49.856;20.290;2023-11-19T14:40:10;17.40;;;10.20;;
34234;SDS011;20500;49.856;20.290;2023-11-19T14:43:16;15.50;;;9.10;;
34234;SDS011;20500;49.856;20.290;2023-11-19T14:46:22;17.80;;;9.80;;
34234;SDS011;20500;49.856;20.290;2023-11-19T14:49:28;15.20;;;8.00;;
34234;SDS011;20500;49.856;20.290;2023-11-19T14:52:34;15.20;;;7.80;;
34234;SDS011;20500;49.856;20.290;2023-11-19T14:55:40;14.50;;;6.90;;
34234;SDS011;20500;49.856;20.290;2023-11-19T14:58:45;9.80;;;5.00;;
34234;SDS011;20500;49.856;20.290;2023-11-19T15:01:53;14.40;;;7.90;;
34234;SDS011;20500;49.856;20.290;2023-11-19T15:05:00;14.00;;;6.90;;
34234;SDS011;20500;49.856;20.290;2023-11-19T15:08:06;15.00;;;6.70;;
34234;SDS011;20500;49.856;20.290;2023-11-19T15:11:12;14.60;;;6.80;;
34234;SDS011;20500;49.856;20.290;2023-11-19T15:14:17;14.90;;;7.10;;
34234;SDS011;20500;49.856;20.290;2023-11-19T15:17:23;17.30;;;9.20;;
34234;SDS011;20500;49.856;20.290;2023-11-19T15:20:30;14.60;;;6.50;;
34234;SDS011;20500;49.856;20.290;2023-11-19T15:23:36;14.00;;;6.30;;
34234;SDS011;20500;49.856;20.290;2023-11-19T15:26:43;14.50;;;6.50;;
34234;SDS011;20500;49.856;20.290;2023-11-19T15:29:49;13.90;;;6.80;;
34234;SDS011;20500;49.856;20.290;2023-11-19T15:32:55;13.30;;;5.90;;
34234;SDS011;20500;49.856;20.290;2023-11-19T15:36:00;16.00;;;7.80;;
34234;SDS011;20500;49.856;20.290;2023-11-19T15:39:10;12.70;;;6.20;;
34234;SDS011;20500;49.856;20.290;2023-11-19T15:42:16;12.70;;;6.00;;
34234;SDS011;20500;49.856;20.290;2023-11-19T15:45:22;12.60;;;6.00;;
34234;SDS011;20500;49.856;20.290;2023-11-19T15:48:28;13.90;;;6.60;;
34234;SDS011;20500;49.856;20.290;2023-11-19T15:51:33;14.20;;;6.70;;
34234;SDS011;20500;49.856;20.290;2023-11-19T15:54:39;13.90;;;5.90;;
34234;SDS011;20500;49.856;20.290;2023-11-19T15:57:45;12.40;;;6.00;;
34234;SDS011;20500;49.856;20.290;2023-11-19T16:00:52;13.00;;;6.10;;
34234;SDS011;20500;49.856;20.290;2023-11-19T16:03:58;13.60;;;6.20;;
34234;SDS011;20500;49.856;20.290;2023-11-19T16:07:04;13.90;;;6.30;;
34234;SDS011;20500;49.856;20.290;2023-11-19T16:10:10;14.60;;;6.50;;
34234;SDS011;20500;49.856;20.290;2023-11-19T16:13:17;12.60;;;6.30;;
34234;SDS011;20500;49.856;20.290;2023-11-19T16:16:24;12.40;;;6.00;;
34234;SDS011;20500;49.856;20.290;2023-11-19T16:19:30;13.10;;;6.10;;
34234;SDS011;20500;49.856;20.290;2023-11-19T16:22:38;11.90;;;5.60;;
34234;SDS011;20500;49.856;20.290;2023-11-19T16:25:45;13.00;;;5.60;;
34234;SDS011;20500;49.856;20.290;2023-11-19T16:28:51;11.60;;;5.10;;
34234;SDS011;20500;49.856;20.290;2023-11-19T16:31:56;13.80;;;5.40;;
34234;SDS011;20500;49.856;20.290;2023-11-19T16:35:03;12.90;;;6.00;;
34234;SDS011;20500;49.856;20.290;2023-11-19T16:38:13;16.60;;;9.30;;
34234;SDS011;20500;49.856;20.290;2023-11-19T16:41:19;35.40;;;23.90;;
34234;SDS011;20500;49.856;20.290;2023-11-19T16:44:41;44.30;;;29.30;;
34234;SDS011;20500;49.856;20.290;2023-11-19T16:47:47;56.80;;;37.10;;
34234;SDS011;20500;49.856;20.290;2023-11-19T16:50:54;40.40;;;28.20;;
34234;SDS011;20500;49.856;20.290;2023-11-19T16:54:03;43.60;;;30.70;;
34234;SDS011;20500;49.856;20.290;2023-11-19T17:00:14;41.30;;;28.20;;
34234;SDS011;20500;49.856;20.290;2023-11-19T17:03:21;36.70;;;28.20;;
34234;SDS011;20500;49.856;20.290;2023-11-19T17:06:27;38.20;;;27.70;;
34234;SDS011;20500;49.856;20.290;2023-11-19T17:09:33;38.50;;;27.30;;
34234;SDS011;20500;49.856;20.290;2023-11-19T17:15:43;36.60;;;24.20;;
34234;SDS011;20500;49.856;20.290;2023-11-19T17:18:49;34.70;;;24.20;;
34234;SDS011;20500;49.856;20.290;2023-11-19T17:21:54;37.80;;;27.40;;
34234;SDS011;20500;49.856;20.290;2023-11-19T17:25:00;34.60;;;25.30;;
34234;SDS011;20500;49.856;20.290;2023-11-19T17:28:08;32.90;;;24.40;;
34234;SDS011;20500;49.856;20.290;2023-11-19T17:34:20;33.70;;;24.00;;
34234;SDS011;20500;49.856;20.290;2023-11-19T17:37:28;32.10;;;22.60;;
34234;SDS011;20500;49.856;20.290;2023-11-19T17:40:35;35.30;;;26.00;;
34234;SDS011;20500;49.856;20.290;2023-11-19T17:43:40;32.90;;;22.10;;
34234;SDS011;20500;49.856;20.290;2023-11-19T17:49:51;27.40;;;17.10;;
34234;SDS011;20500;49.856;20.290;2023-11-19T17:52:58;20.60;;;11.90;;
34234;SDS011;20500;49.856;20.290;2023-11-19T17:56:04;20.70;;;12.70;;
34234;SDS011;20500;49.856;20.290;2023-11-19T17:59:11;21.00;;;11.90;;
34234;SDS011;20500;49.856;20.290;2023-11-19T18:02:19;23.10;;;14.70;;
34234;SDS011;20500;49.856;20.290;2023-11-19T18:05:44;16.20;;;7.90;;
34234;SDS011;20500;49.856;20.290;2023-11-19T18:08:52;19.50;;;9.30;;
34234;SDS011;20500;49.856;20.290;2023-11-19T18:11:58;21.10;;;10.60;;
34234;SDS011;20500;49.856;20.290;2023-11-19T18:15:17;21.70;;;11.60;;
34234;SDS011;20500;49.856;20.290;2023-11-19T18:18:23;15.70;;;8.10;;
34234;SDS011;20500;49.856;20.290;2023-11-19T18:21:29;13.10;;;6.60;;
34234;SDS011;20500;49.856;20.290;2023-11-19T18:24:35;14.00;;;7.40;;
34234;SDS011;20500;49.856;20.290;2023-11-19T18:27:41;13.10;;;6.50;;
34234;SDS011;20500;49.856;20.290;2023-11-19T18:30:47;13.50;;;6.40;;
34234;SDS011;20500;49.856;20.290;2023-11-19T18:36:58;20.40;;;12.60;;
34234;SDS011;20500;49.856;20.290;2023-11-19T18:40:04;21.00;;;13.10;;
34234;SDS011;20500;49.856;20.290;2023-11-19T18:43:12;21.90;;;12.00;;
34234;SDS011;20500;49.856;20.290;2023-11-19T18:46:18;16.10;;;8.30;;
34234;SDS011;20500;49.856;20.290;2023-11-19T18:49:24;20.70;;;12.30;;
34234;SDS011;20500;49.856;20.290;2023-11-19T18:55:34;21.20;;;11.80;;
34234;SDS011;20500;49.856;20.290;2023-11-19T18:58:41;16.50;;;9.40;;
34234;SDS011;20500;49.856;20.290;2023-11-19T19:01:47;18.50;;;10.20;;
34234;SDS011;20500;49.856;20.290;2023-11-19T19:04:52;19.50;;;11.00;;
34234;SDS011;20500;49.856;20.290;2023-11-19T19:07:58;14.30;;;7.20;;
34234;SDS011;20500;49.856;20.290;2023-11-19T19:11:04;13.90;;;6.30;;
34234;SDS011;20500;49.856;20.290;2023-11-19T19:14:10;14.20;;;7.10;;
34234;SDS011;20500;49.856;20.290;2023-11-19T19:17:16;13.30;;;5.80;;